sensor_id;sensor_type;location;lat;lon;timestamp;pressure;altitude;pressure_sealevel;temperature;humidity
69318;BME280;56457;52.190;4.440;2023-09-07T00:00:59;102058.19;;;21.80;100.00
69318;BME280;56457;52.190;4.440;2023-09-07T00:02:01;102054.59;;;21.81;100.00
69318;BME280;56457;52.190;4.440;2023-09-07T00:03:01;102052.84;;;21.80;100.00
69318;BME280;56457;52.190;4.440;2023-09-07T00:04:02;102055.47;;;21.82;100.00
69318;BME280;56457;52.190;4.440;2023-09-07T00:05:03;102059.94;;;21.81;100.00
69318;BME280;56457;52.190;4.440;2023-09-07T00:06:07;102056.44;;;21.79;100.00
69318;BME280;56457;52.190;4.440;2023-09-07T00:07:07;102046.59;;;21.81;100.00
69318;BME280;56457;52.190;4.440;2023-09-07T00:08:07;102053.81;;;21.77;100.00
69318;BME280;56457;52.190;4.440;2023-09-07T00:09:08;102052.03;;;21.78;100.00
69318;BME280;56457;52.190;4.440;2023-09-07T00:10:08;102049.41;;;21.76;100.00
69318;BME280;56457;52.190;4.440;2023-09-07T00:11:09;102053.00;;;21.75;100.00
69318;BME280;56457;52.190;4.440;2023-09-07T00:12:10;102046.75;;;21.76;100.00
69318;BME280;56457;52.190;4.440;2023-09-07T00:13:10;102047.66;;;21.75;100.00
69318;BME280;56457;52.190;4.440;2023-09-07T00:14:11;102047.59;;;21.77;100.00
69318;BME280;56457;52.190;4.440;2023-09-07T00:15:11;102045.16;;;21.71;100.00
69318;BME280;56457;52.190;4.440;2023-09-07T00:16:11;102042.38;;;21.74;100.00
69318;BME280;56457;52.190;4.440;2023-09-07T00:17:12;102047.66;;;21.75;100.00
69318;BME280;56457;52.190;4.440;2023-09-07T00:18:12;102044.06;;;21.76;100.00
69318;BME280;56457;52.190;4.440;2023-09-07T00:19:12;102044.16;;;21.73;100.00
69318;BME280;56457;52.190;4.440;2023-09-07T00:20:13;102049.50;;;21.73;100.00
69318;BME280;56457;52.190;4.440;2023-09-07T00:21:15;102042.41;;;21.72;100.00
69318;BME280;56457;52.190;4.440;2023-09-07T00:22:16;102041.56;;;21.72;100.00
69318;BME280;56457;52.190;4.440;2023-09-07T00:23:17;102044.28;;;21.70;100.00
69318;BME280;56457;52.190;4.440;2023-09-07T00:24:17;102041.50;;;21.73;100.00
69318;BME280;56457;52.190;4.440;2023-09-07T00:25:17;102044.22;;;21.72;100.00
69318;BME280;56457;52.190;4.440;2023-09-07T00:26:18;102043.63;;;21.64;100.00
69318;BME280;56457;52.190;4.440;2023-09-07T00:27:19;102037.34;;;21.65;100.00
69318;BME280;56457;52.190;4.440;2023-09-07T00:28:19;102041.75;;;21.66;100.00
69318;BME280;56457;52.190;4.440;2023-09-07T00:29:19;102045.28;;;21.68;100.00
69318;BME280;56457;52.190;4.440;2023-09-07T00:30:19;102044.59;;;21.61;100.00
69318;BME280;56457;52.190;4.440;2023-09-07T00:31:20;102045.38;;;21.65;100.00
69318;BME280;56457;52.190;4.440;2023-09-07T00:32:20;102043.50;;;21.67;100.00
69318;BME280;56457;52.190;4.440;2023-09-07T00:33:20;102047.94;;;21.68;100.00
69318;BME280;56457;52.190;4.440;2023-09-07T00:34:20;102047.09;;;21.66;100.00
69318;BME280;56457;52.190;4.440;2023-09-07T00:35:21;102050.84;;;21.62;100.00
69318;BME280;56457;52.190;4.440;2023-09-07T00:36:21;102046.56;;;21.56;100.00
69318;BME280;56457;52.190;4.440;2023-09-07T00:37:21;102046.44;;;21.59;100.00
69318;BME280;56457;52.190;4.440;2023-09-07T00:38:21;102041.03;;;21.62;100.00
69318;BME280;56457;52.190;4.440;2023-09-07T00:39:22;102049.06;;;21.61;100.00
69318;BME280;56457;52.190;4.440;2023-09-07T00:40:22;102051.56;;;21.65;100.00
69318;BME280;56457;52.190;4.440;2023-09-07T00:41:23;102047.22;;;21.63;100.00
69318;BME280;56457;52.190;4.440;2023-09-07T00:42:23;102052.59;;;21.61;100.00
69318;BME280;56457;52.190;4.440;2023-09-07T00:43:23;102043.72;;;21.61;100.00
69318;BME280;56457;52.190;4.440;2023-09-07T00:44:23;102039.25;;;21.61;100.00
69318;BME280;56457;52.190;4.440;2023-09-07T00:45:24;102048.31;;;21.57;100.00
69318;BME280;56457;52.190;4.440;2023-09-07T00:46:24;102046.59;;;21.55;100.00
69318;BME280;56457;52.190;4.440;2023-09-07T00:47:24;102044.78;;;21.57;100.00
69318;BME280;56457;52.190;4.440;2023-09-07T00:48:24;102042.97;;;21.57;100.00
69318;BME280;56457;52.190;4.440;2023-09-07T00:49:25;102051.06;;;21.54;100.00
69318;BME280;56457;52.190;4.440;2023-09-07T00:50:25;102046.13;;;21.43;100.00
69318;BME280;56457;52.190;4.440;2023-09-07T00:51:26;102052.56;;;21.36;100.00
69318;BME280;56457;52.190;4.440;2023-09-07T00:52:26;102052.63;;;21.35;100.00
69318;BME280;56457;52.190;4.440;2023-09-07T00:53:27;102042.81;;;21.35;100.00
69318;BME280;56457;52.190;4.440;2023-09-07T00:54:28;102046.34;;;21.36;100.00
69318;BME280;56457;52.190;4.440;2023-09-07T00:55:28;102042.66;;;21.40;100.00
69318;BME280;56457;52.190;4.440;2023-09-07T00:56:32;102040.78;;;21.43;100.00
69318;BME280;56457;52.190;4.440;2023-09-07T00:57:33;102039.13;;;21.39;100.00
69318;BME280;56457;52.190;4.440;2023-09-07T00:58:33;102037.28;;;21.41;100.00
69318;BME280;56457;52.190;4.440;2023-09-07T00:59:33;102032.97;;;21.37;100.00
69318;BME280;56457;52.190;4.440;2023-09-07T01:00:34;102028.34;;;21.42;100.00
69318;BME280;56457;52.190;4.440;2023-09-07T01:01:35;102023.00;;;21.42;100.00
69318;BME280;56457;52.190;4.440;2023-09-07T01:02:35;102026.72;;;21.38;100.00
69318;BME280;56457;52.190;4.440;2023-09-07T01:03:35;102033.88;;;21.36;100.00
69318;BME280;56457;52.190;4.440;2023-09-07T01:04:36;102035.03;;;21.28;100.00
69318;BME280;56457;52.190;4.440;2023-09-07T01:07:04;102029.03;;;21.21;100.00
69318;BME280;56457;52.190;4.440;2023-09-07T01:08:10;102027.38;;;21.17;100.00
69318;BME280;56457;52.190;4.440;2023-09-07T01:09:17;102024.84;;;21.14;100.00
69318;BME280;56457;52.190;4.440;2023-09-07T01:10:19;102026.50;;;21.16;100.00
69318;BME280;56457;52.190;4.440;2023-09-07T01:11:20;102025.75;;;21.13;100.00
69318;BME280;56457;52.190;4.440;2023-09-07T01:12:22;102023.03;;;21.14;100.00
69318;BME280;56457;52.190;4.440;2023-09-07T01:13:23;102023.13;;;21.11;100.00
69318;BME280;56457;52.190;4.440;2023-09-07T01:14:23;102022.97;;;21.16;100.00
69318;BME280;56457;52.190;4.440;2023-09-07T01:15:23;102031.19;;;21.10;100.00
69318;BME280;56457;52.190;4.440;2023-09-07T01:16:24;102026.72;;;21.10;100.00
69318;BME280;56457;52.190;4.440;2023-09-07T01:17:24;102022.25;;;21.11;100.00
69318;BME280;56457;52.190;4.440;2023-09-07T01:18:25;102030.13;;;21.15;100.00
69318;BME280;56457;52.190;4.440;2023-09-07T01:19:25;102020.50;;;21.10;100.00
69318;BME280;56457;52.190;4.440;2023-09-07T01:20:25;102029.59;;;21.04;100.00
69318;BME280;56457;52.190;4.440;2023-09-07T01:21:26;102026.00;;;21.05;100.00
69318;BME280;56457;52.190;4.440;2023-09-07T01:22:28;102020.72;;;21.04;100.00
69318;BME280;56457;52.190;4.440;2023-09-07T01:23:28;102027.03;;;21.01;100.00
69318;BME280;56457;52.190;4.440;2023-09-07T01:24:28;102020.19;;;20.92;100.00
69318;BME280;56457;52.190;4.440;2023-09-07T01:25:30;102021.03;;;20.94;100.00
69318;BME280;56457;52.190;4.440;2023-09-07T01:26:32;102024.63;;;20.93;100.00
69318;BME280;56457;52.190;4.440;2023-09-07T01:27:33;102025.44;;;20.95;100.00
69318;BME280;56457;52.190;4.440;2023-09-07T01:28:33;102021.97;;;20.93;100.00
69318;BME280;56457;52.190;4.440;2023-09-07T01:29:33;102021.84;;;20.96;100.00
69318;BME280;56457;52.190;4.440;2023-09-07T01:30:34;102018.34;;;20.94;100.00
69318;BME280;56457;52.190;4.440;2023-09-07T01:31:35;102026.38;;;20.94;100.00
69318;BME280;56457;52.190;4.440;2023-09-07T01:32:36;102021.78;;;20.98;100.00
69318;BME280;56457;52.190;4.440;2023-09-07T01:33:36;102025.38;;;20.97;100.00
69318;BME280;56457;52.190;4.440;2023-09-07T01:34:37;102019.09;;;21.00;100.00
69318;BME280;56457;52.190;4.440;2023-09-07T01:35:37;102023.59;;;20.97;100.00
69318;BME280;56457;52.190;4.440;2023-09-07T01:36:38;102018.25;;;20.97;100.00
69318;BME280;56457;52.190;4.440;2023-09-07T01:37:38;102018.09;;;21.02;100.00
69318;BME280;56457;52.190;4.440;2023-09-07T01:38:38;102019.13;;;20.98;100.00
69318;BME280;56457;52.190;4.440;2023-09-07T01:39:39;102019.97;;;21.00;100.00
69318;BME280;56457;52.190;4.440;2023-09-07T01:40:39;102015.53;;;20.99;100.00
69318;BME280;56457;52.190;4.440;2023-09-07T01:41:39;102016.38;;;21.01;100.00
69318;BME280;56457;52.190;4.440;2023-09-07T01:42:39;102015.50;;;21.01;100.00
69318;BME280;56457;52.190;4.440;2023-09-07T01:43:40;102023.59;;;20.97;100.00
69318;BME280;56457;52.190;4.440;2023-09-07T01:44:40;102018.31;;;20.96;100.00
69318;BME280;56457;52.190;4.440;2023-09-07T01:45:40;102019.28;;;20.93;100.00
69318;BME280;56457;52.190;4.440;2023-09-07T01:46:40;102014.03;;;20.90;100.00
69318;BME280;56457;52.190;4.440;2023-09-07T01:47:41;102017.63;;;20.89;100.00
69318;BME280;56457;52.190;4.440;2023-09-07T01:48:41;102023.16;;;20.83;100.00
69318;BME280;56457;52.190;4.440;2023-09-07T01:49:42;102029.47;;;20.81;100.00
69318;BME280;56457;52.190;4.440;2023-09-07T01:50:42;102027.63;;;20.83;100.00
69318;BME280;56457;52.190;4.440;2023-09-07T01:51:42;102023.22;;;20.82;100.00
69318;BME280;56457;52.190;4.440;2023-09-07T01:52:45;102020.75;;;20.74;100.00
69318;BME280;56457;52.190;4.440;2023-09-07T01:53:48;102026.06;;;20.76;100.00
69318;BME280;56457;52.190;4.440;2023-09-07T01:54:48;102030.75;;;20.67;100.00
69318;BME280;56457;52.190;4.440;2023-09-07T01:55:49;102022.69;;;20.70;100.00
69318;BME280;56457;52.190;4.440;2023-09-07T01:56:50;102020.00;;;20.70;100.00
69318;BME280;56457;52.190;4.440;2023-09-07T01:57:51;102016.34;;;20.73;100.00
69318;BME280;56457;52.190;4.440;2023-09-07T01:58:51;102023.53;;;20.71;100.00
69318;BME280;56457;52.190;4.440;2023-09-07T01:59:51;102016.47;;;20.70;100.00
69318;BME280;56457;52.190;4.440;2023-09-07T02:00:52;102016.41;;;20.72;100.00
69318;BME280;56457;52.190;4.440;2023-09-07T02:01:52;102019.09;;;20.72;100.00
69318;BME280;56457;52.190;4.440;2023-09-07T02:02:52;102013.69;;;20.73;100.00
69318;BME280;56457;52.190;4.440;2023-09-07T02:03:53;102017.03;;;20.80;100.00
69318;BME280;56457;52.190;4.440;2023-09-07T02:04:53;102018.81;;;20.81;100.00
69318;BME280;56457;52.190;4.440;2023-09-07T02:05:54;102021.50;;;20.79;100.00
69318;BME280;56457;52.190;4.440;2023-09-07T02:06:54;102017.91;;;20.80;100.00
69318;BME280;56457;52.190;4.440;2023-09-07T02:07:54;102024.09;;;20.82;100.00
69318;BME280;56457;52.190;4.440;2023-09-07T02:08:54;102019.75;;;20.78;100.00
69318;BME280;56457;52.190;4.440;2023-09-07T02:09:55;102021.47;;;20.81;100.00
69318;BME280;56457;52.190;4.440;2023-09-07T02:10:55;102023.28;;;20.79;100.00
69318;BME280;56457;52.190;4.440;2023-09-07T02:11:56;102023.34;;;20.77;100.00
69318;BME280;56457;52.190;4.440;2023-09-07T02:12:56;102026.09;;;20.74;100.00
69318;BME280;56457;52.190;4.440;2023-09-07T02:13:58;102019.09;;;20.72;100.00
69318;BME280;56457;52.190;4.440;2023-09-07T02:15:00;102021.69;;;20.73;100.00
69318;BME280;56457;52.190;4.440;2023-09-07T02:16:03;102023.69;;;20.66;100.00
69318;BME280;56457;52.190;4.440;2023-09-07T02:17:03;102025.59;;;20.63;100.00
69318;BME280;56457;52.190;4.440;2023-09-07T02:18:04;102027.59;;;20.55;100.00
69318;BME280;56457;52.190;4.440;2023-09-07T02:19:05;102025.63;;;20.61;100.00
69318;BME280;56457;52.190;4.440;2023-09-07T02:20:07;102019.41;;;20.61;100.00
69318;BME280;56457;52.190;4.440;2023-09-07T02:21:10;102017.66;;;20.60;100.00
69318;BME280;56457;52.190;4.440;2023-09-07T02:22:10;102025.63;;;20.61;100.00
69318;BME280;56457;52.190;4.440;2023-09-07T02:23:10;102024.75;;;20.61;100.00
69318;BME280;56457;52.190;4.440;2023-09-07T02:24:11;102025.78;;;20.55;100.00
69318;BME280;56457;52.190;4.440;2023-09-07T02:25:11;102017.84;;;20.54;100.00
69318;BME280;56457;52.190;4.440;2023-09-07T02:26:11;102026.88;;;20.50;100.00
69318;BME280;56457;52.190;4.440;2023-09-07T02:27:12;102020.63;;;20.51;100.00
69318;BME280;56457;52.190;4.440;2023-09-07T02:28:12;102020.38;;;20.58;100.00
69318;BME280;56457;52.190;4.440;2023-09-07T02:29:12;102018.59;;;20.59;100.00
69318;BME280;56457;52.190;4.440;2023-09-07T02:30:12;102020.34;;;20.60;100.00
69318;BME280;56457;52.190;4.440;2023-09-07T02:31:13;102026.53;;;20.60;100.00
69318;BME280;56457;52.190;4.440;2023-09-07T02:32:13;102020.28;;;20.61;100.00
69318;BME280;56457;52.190;4.440;2023-09-07T02:33:13;102018.59;;;20.59;100.00
69318;BME280;56457;52.190;4.440;2023-09-07T02:34:14;102023.94;;;20.59;100.00
69318;BME280;56457;52.190;4.440;2023-09-07T02:35:14;102021.25;;;20.59;100.00
69318;BME280;56457;52.190;4.440;2023-09-07T02:36:14;102022.19;;;20.58;100.00
69318;BME280;56457;52.190;4.440;2023-09-07T02:37:14;102022.38;;;20.52;100.00
69318;BME280;56457;52.190;4.440;2023-09-07T02:38:16;102021.38;;;20.54;100.00
69318;BME280;56457;52.190;4.440;2023-09-07T02:39:16;102026.66;;;20.56;100.00
69318;BME280;56457;52.190;4.440;2023-09-07T02:40:17;102027.53;;;20.58;100.00
69318;BME280;56457;52.190;4.440;2023-09-07T02:41:18;102023.94;;;20.59;100.00
69318;BME280;56457;52.190;4.440;2023-09-07T02:42:18;102028.66;;;20.49;100.00
69318;BME280;56457;52.190;4.440;2023-09-07T02:43:18;102034.78;;;20.53;100.00
69318;BME280;56457;52.190;4.440;2023-09-07T02:44:18;102027.66;;;20.53;100.00
69318;BME280;56457;52.190;4.440;2023-09-07T02:45:19;102032.94;;;20.55;100.00
69318;BME280;56457;52.190;4.440;2023-09-07T02:46:19;102031.94;;;20.59;100.00
69318;BME280;56457;52.190;4.440;2023-09-07T02:47:19;102031.31;;;20.49;100.00
69318;BME280;56457;52.190;4.440;2023-09-07T02:48:20;102030.59;;;20.42;100.00
69318;BME280;56457;52.190;4.440;2023-09-07T02:49:20;102030.84;;;20.35;100.00
69318;BME280;56457;52.190;4.440;2023-09-07T02:50:20;102030.16;;;20.28;100.00
69318;BME280;56457;52.190;4.440;2023-09-07T02:51:21;102030.16;;;20.28;100.00
69318;BME280;56457;52.190;4.440;2023-09-07T02:52:21;102030.25;;;20.25;100.00
69318;BME280;56457;52.190;4.440;2023-09-07T02:53:21;102029.16;;;20.32;100.00
69318;BME280;56457;52.190;4.440;2023-09-07T02:54:22;102034.38;;;20.35;100.00
69318;BME280;56457;52.190;4.440;2023-09-07T02:55:22;102036.16;;;20.35;100.00
69318;BME280;56457;52.190;4.440;2023-09-07T02:56:23;102043.16;;;20.39;100.00
69318;BME280;56457;52.190;4.440;2023-09-07T02:57:23;102040.63;;;20.34;100.00
69318;BME280;56457;52.190;4.440;2023-09-07T02:58:23;102035.97;;;20.41;100.00
69318;BME280;56457;52.190;4.440;2023-09-07T02:59:24;102031.47;;;20.43;100.00
69318;BME280;56457;52.190;4.440;2023-09-07T03:00:24;102034.09;;;20.46;100.00
69318;BME280;56457;52.190;4.440;2023-09-07T03:01:25;102040.28;;;20.47;100.00
69318;BME280;56457;52.190;4.440;2023-09-07T03:02:25;102027.88;;;20.46;100.00
69318;BME280;56457;52.190;4.440;2023-09-07T03:03:25;102034.03;;;20.48;100.00
69318;BME280;56457;52.190;4.440;2023-09-07T03:04:25;102031.38;;;20.48;100.00
69318;BME280;56457;52.190;4.440;2023-09-07T03:05:28;102034.97;;;20.47;100.00
69318;BME280;56457;52.190;4.440;2023-09-07T03:06:29;102031.44;;;20.46;100.00
69318;BME280;56457;52.190;4.440;2023-09-07T03:07:32;102037.69;;;20.43;100.00
69318;BME280;56457;52.190;4.440;2023-09-07T03:08:32;102033.38;;;20.39;100.00
69318;BME280;56457;52.190;4.440;2023-09-07T03:09:32;102033.69;;;20.29;100.00
69318;BME280;56457;52.190;4.440;2023-09-07T03:10:33;102039.81;;;20.31;100.00
69318;BME280;56457;52.190;4.440;2023-09-07T03:11:33;102038.06;;;20.31;100.00
69318;BME280;56457;52.190;4.440;2023-09-07T03:12:35;102033.56;;;20.33;100.00
69318;BME280;56457;52.190;4.440;2023-09-07T03:13:35;102040.69;;;20.33;100.00
69318;BME280;56457;52.190;4.440;2023-09-07T03:14:35;102039.94;;;20.28;100.00
69318;BME280;56457;52.190;4.440;2023-09-07T03:15:35;102045.25;;;20.28;100.00
69318;BME280;56457;52.190;4.440;2023-09-07T03:16:36;102034.59;;;20.28;100.00
69318;BME280;56457;52.190;4.440;2023-09-07T03:17:38;102030.16;;;20.28;100.00
69318;BME280;56457;52.190;4.440;2023-09-07T03:18:38;102032.69;;;20.33;100.00
69318;BME280;56457;52.190;4.440;2023-09-07T03:19:39;102028.16;;;20.35;100.00
69318;BME280;56457;52.190;4.440;2023-09-07T03:20:39;102030.09;;;20.30;100.00
69318;BME280;56457;52.190;4.440;2023-09-07T03:21:39;102027.41;;;20.31;100.00
69318;BME280;56457;52.190;4.440;2023-09-07T03:22:41;102026.56;;;20.29;100.00
69318;BME280;56457;52.190;4.440;2023-09-07T03:23:41;102032.94;;;20.24;100.00
69318;BME280;56457;52.190;4.440;2023-09-07T03:24:44;102027.72;;;20.21;100.00
69318;BME280;56457;52.190;4.440;2023-09-07T03:25:44;102031.28;;;20.20;100.00
69318;BME280;56457;52.190;4.440;2023-09-07T03:26:45;102021.56;;;20.19;100.00
69318;BME280;56457;52.190;4.440;2023-09-07T03:27:45;102026.97;;;20.15;100.00
69318;BME280;56457;52.190;4.440;2023-09-07T03:28:45;102025.97;;;20.20;100.00
69318;BME280;56457;52.190;4.440;2023-09-07T03:29:46;102027.84;;;20.16;100.00
69318;BME280;56457;52.190;4.440;2023-09-07T03:30:46;102027.84;;;20.16;100.00
69318;BME280;56457;52.190;4.440;2023-09-07T03:31:46;102022.69;;;20.10;100.00
69318;BME280;56457;52.190;4.440;2023-09-07T03:32:47;102028.88;;;20.10;100.00
69318;BME280;56457;52.190;4.440;2023-09-07T03:33:47;102024.34;;;20.14;100.00
69318;BME280;56457;52.190;4.440;2023-09-07T03:34:47;102018.09;;;20.15;100.00
69318;BME280;56457;52.190;4.440;2023-09-07T03:35:48;102026.03;;;20.16;100.00
69318;BME280;56457;52.190;4.440;2023-09-07T03:36:48;102024.31;;;20.15;100.00
69318;BME280;56457;52.190;4.440;2023-09-07T03:37:48;102026.16;;;20.13;100.00
69318;BME280;56457;52.190;4.440;2023-09-07T03:38:48;102021.75;;;20.11;100.00
69318;BME280;56457;52.190;4.440;2023-09-07T03:39:49;102020.88;;;20.10;100.00
69318;BME280;56457;52.190;4.440;2023-09-07T03:40:49;102023.50;;;20.12;100.00
69318;BME280;56457;52.190;4.440;2023-09-07T03:41:50;102016.44;;;20.11;100.00
69318;BME280;56457;52.190;4.440;2023-09-07T03:42:50;102021.88;;;20.08;100.00
69318;BME280;56457;52.190;4.440;2023-09-07T03:43:50;102021.75;;;20.11;100.00
69318;BME280;56457;52.190;4.440;2023-09-07T03:44:51;102021.75;;;20.11;100.00
69318;BME280;56457;52.190;4.440;2023-09-07T03:45:51;102026.31;;;20.07;100.00
69318;BME280;56457;52.190;4.440;2023-09-07T03:46:51;102021.91;;;20.06;100.00
69318;BME280;56457;52.190;4.440;2023-09-07T03:47:52;102028.13;;;20.07;100.00
69318;BME280;56457;52.190;4.440;2023-09-07T03:48:52;102024.47;;;20.09;100.00
69318;BME280;56457;52.190;4.440;2023-09-07T03:49:52;102031.66;;;20.07;100.00
69318;BME280;56457;52.190;4.440;2023-09-07T03:50:52;102028.94;;;20.09;100.00
69318;BME280;56457;52.190;4.440;2023-09-07T03:51:53;102032.47;;;20.09;100.00
69318;BME280;56457;52.190;4.440;2023-09-07T03:52:53;102029.00;;;20.07;100.00
69318;BME280;56457;52.190;4.440;2023-09-07T03:53:53;102030.69;;;20.10;100.00
69318;BME280;56457;52.190;4.440;2023-09-07T03:54:54;102033.28;;;20.11;100.00
69318;BME280;56457;52.190;4.440;2023-09-07T03:55:55;102032.41;;;20.11;100.00
69318;BME280;56457;52.190;4.440;2023-09-07T03:56:55;102029.84;;;20.08;100.00
69318;BME280;56457;52.190;4.440;2023-09-07T03:57:55;102021.91;;;20.06;100.00
69318;BME280;56457;52.190;4.440;2023-09-07T03:58:56;102031.78;;;20.03;100.00
69318;BME280;56457;52.190;4.440;2023-09-07T03:59:56;102030.09;;;19.99;100.00
69318;BME280;56457;52.190;4.440;2023-09-07T04:09:33;102034.78;;;19.90;100.00
69318;BME280;56457;52.190;4.440;2023-09-07T04:10:36;102038.44;;;19.86;100.00
69318;BME280;56457;52.190;4.440;2023-09-07T04:11:36;102034.16;;;19.81;100.00
69318;BME280;56457;52.190;4.440;2023-09-07T04:12:36;102038.59;;;19.82;100.00
69318;BME280;56457;52.190;4.440;2023-09-07T04:13:37;102035.03;;;19.81;100.00
69318;BME280;56457;52.190;4.440;2023-09-07T04:14:37;102032.38;;;19.81;100.00
69318;BME280;56457;52.190;4.440;2023-09-07T04:15:41;102039.41;;;19.84;100.00
69318;BME280;56457;52.190;4.440;2023-09-07T04:16:42;102040.22;;;19.86;100.00
69318;BME280;56457;52.190;4.440;2023-09-07T04:17:42;102044.78;;;19.82;100.00
69318;BME280;56457;52.190;4.440;2023-09-07T04:18:42;102039.44;;;19.82;100.00
69318;BME280;56457;52.190;4.440;2023-09-07T04:19:44;102042.28;;;19.76;100.00
69318;BME280;56457;52.190;4.440;2023-09-07T04:20:44;102040.59;;;19.72;100.00
69318;BME280;56457;52.190;4.440;2023-09-07T04:21:45;102044.19;;;19.71;100.00
69318;BME280;56457;52.190;4.440;2023-09-07T04:22:45;102037.13;;;19.70;100.00
69318;BME280;56457;52.190;4.440;2023-09-07T04:23:45;102043.38;;;19.68;100.00
69318;BME280;56457;52.190;4.440;2023-09-07T04:24:48;102038.06;;;19.68;100.00
69318;BME280;56457;52.190;4.440;2023-09-07T04:25:49;102045.16;;;19.67;100.00
69318;BME280;56457;52.190;4.440;2023-09-07T04:26:49;102049.66;;;19.65;100.00
69318;BME280;56457;52.190;4.440;2023-09-07T04:27:50;102050.59;;;19.62;100.00
69318;BME280;56457;52.190;4.440;2023-09-07T04:28:50;102053.31;;;19.61;100.00
69318;BME280;56457;52.190;4.440;2023-09-07T04:29:50;102048.03;;;19.59;100.00
69318;BME280;56457;52.190;4.440;2023-09-07T04:30:51;102048.00;;;19.61;100.00
69318;BME280;56457;52.190;4.440;2023-09-07T04:31:51;102044.53;;;19.57;100.00
69318;BME280;56457;52.190;4.440;2023-09-07T04:32:51;102045.44;;;19.56;100.00
69318;BME280;56457;52.190;4.440;2023-09-07T04:33:52;102044.53;;;19.56;100.00
69318;BME280;56457;52.190;4.440;2023-09-07T04:34:53;102041.00;;;19.55;100.00
69318;BME280;56457;52.190;4.440;2023-09-07T04:35:53;102042.91;;;19.52;100.00
69318;BME280;56457;52.190;4.440;2023-09-07T04:36:53;102040.22;;;19.52;100.00
69318;BME280;56457;52.190;4.440;2023-09-07T04:37:53;102039.38;;;19.50;100.00
69318;BME280;56457;52.190;4.440;2023-09-07T04:38:54;102042.97;;;19.49;100.00
69318;BME280;56457;52.190;4.440;2023-09-07T04:39:54;102044.78;;;19.47;100.00
69318;BME280;56457;52.190;4.440;2023-09-07T04:40:55;102044.78;;;19.47;100.00
69318;BME280;56457;52.190;4.440;2023-09-07T04:41:55;102047.41;;;19.48;100.00
69318;BME280;56457;52.190;4.440;2023-09-07T04:42:55;102052.72;;;19.48;100.00
69318;BME280;56457;52.190;4.440;2023-09-07T04:43:56;102041.22;;;19.48;100.00
69318;BME280;56457;52.190;4.440;2023-09-07T04:44:57;102050.19;;;19.44;100.00
69318;BME280;56457;52.190;4.440;2023-09-07T04:45:57;102064.53;;;19.38;100.00
69318;BME280;56457;52.190;4.440;2023-09-07T04:46:57;102055.66;;;19.37;100.00
69318;BME280;56457;52.190;4.440;2023-09-07T04:47:58;102066.25;;;19.41;100.00
69318;BME280;56457;52.190;4.440;2023-09-07T04:48:58;102061.78;;;19.41;100.00
69318;BME280;56457;52.190;4.440;2023-09-07T04:49:58;102066.25;;;19.41;100.00
69318;BME280;56457;52.190;4.440;2023-09-07T04:51:02;102065.28;;;19.43;100.00
69318;BME280;56457;52.190;4.440;2023-09-07T04:52:03;102067.13;;;19.41;100.00
69318;BME280;56457;52.190;4.440;2023-09-07T04:53:03;102065.31;;;19.42;100.00
69318;BME280;56457;52.190;4.440;2023-09-07T04:54:04;102064.50;;;19.40;100.00
69318;BME280;56457;52.190;4.440;2023-09-07T04:55:04;102069.88;;;19.36;100.00
69318;BME280;56457;52.190;4.440;2023-09-07T04:56:05;102074.38;;;19.34;100.00
69318;BME280;56457;52.190;4.440;2023-09-07T04:57:06;102071.72;;;19.34;100.00
69318;BME280;56457;52.190;4.440;2023-09-07T04:58:06;102069.91;;;19.35;100.00
69318;BME280;56457;52.190;4.440;2023-09-07T04:59:07;102072.59;;;19.35;100.00
69318;BME280;56457;52.190;4.440;2023-09-07T05:00:07;102068.13;;;19.35;100.00
69318;BME280;56457;52.190;4.440;2023-09-07T05:01:11;102074.41;;;19.33;100.00
69318;BME280;56457;52.190;4.440;2023-09-07T05:02:12;102069.09;;;19.33;100.00
69318;BME280;56457;52.190;4.440;2023-09-07T05:03:12;102078.00;;;19.32;100.00
69318;BME280;56457;52.190;4.440;2023-09-07T05:04:12;102071.81;;;19.30;100.00
69318;BME280;56457;52.190;4.440;2023-09-07T05:05:12;102078.88;;;19.31;100.00
69318;BME280;56457;52.190;4.440;2023-09-07T05:06:13;102076.22;;;19.31;100.00
69318;BME280;56457;52.190;4.440;2023-09-07T05:07:14;102073.59;;;19.29;100.00
69318;BME280;56457;52.190;4.440;2023-09-07T05:08:14;102086.91;;;19.29;100.00
69318;BME280;56457;52.190;4.440;2023-09-07T05:09:15;102076.34;;;19.26;100.00
69318;BME280;56457;52.190;4.440;2023-09-07T05:10:16;102081.69;;;19.25;100.00
69318;BME280;56457;52.190;4.440;2023-09-07T05:11:16;102085.22;;;19.27;100.00
69318;BME280;56457;52.190;4.440;2023-09-07T05:12:16;102091.47;;;19.24;100.00
69318;BME280;56457;52.190;4.440;2023-09-07T05:13:18;102079.91;;;19.25;100.00
69318;BME280;56457;52.190;4.440;2023-09-07T05:14:18;102086.97;;;19.28;100.00
69318;BME280;56457;52.190;4.440;2023-09-07T05:15:19;102080.66;;;19.30;100.00
69318;BME280;56457;52.190;4.440;2023-09-07T05:16:19;102089.50;;;19.32;100.00
69318;BME280;56457;52.190;4.440;2023-09-07T05:17:19;102085.97;;;19.32;100.00
69318;BME280;56457;52.190;4.440;2023-09-07T05:18:20;102079.75;;;19.31;100.00
69318;BME280;56457;52.190;4.440;2023-09-07T05:19:21;102086.91;;;19.29;100.00
69318;BME280;56457;52.190;4.440;2023-09-07T05:20:21;102086.91;;;19.29;100.00
69318;BME280;56457;52.190;4.440;2023-09-07T05:21:21;102086.00;;;19.30;100.00
69318;BME280;56457;52.190;4.440;2023-09-07T05:22:22;102084.22;;;19.31;100.00
69318;BME280;56457;52.190;4.440;2023-09-07T05:23:22;102083.31;;;19.32;100.00